sensor_id;sensor_type;location;lat;lon;timestamp;pressure;altitude;pressure_sealevel;temperature;humidity
82262;BME280;71861;52.364;6.580;2023-08-30T03:01:48;100844.84;;;12.35;83.19
82262;BME280;71861;52.364;6.580;2023-08-30T03:04:13;100840.47;;;12.27;83.47
82262;BME280;71861;52.364;6.580;2023-08-30T03:06:39;100843.75;;;12.21;83.81
82262;BME280;71861;52.364;6.580;2023-08-30T03:09:04;100841.66;;;12.17;84.04
82262;BME280;71861;52.364;6.580;2023-08-30T03:11:31;100840.50;;;12.11;83.98
82262;BME280;71861;52.364;6.580;2023-08-30T03:13:57;100841.03;;;12.07;84.04
82262;BME280;71861;52.364;6.580;2023-08-30T03:16:22;100841.34;;;12.04;83.81
82262;BME280;71861;52.364;6.580;2023-08-30T03:18:48;100838.44;;;11.99;83.89
82262;BME280;71861;52.364;6.580;2023-08-30T03:21:13;100832.59;;;11.97;84.71
82262;BME280;71861;52.364;6.580;2023-08-30T03:23:39;100822.50;;;11.94;83.82
82262;BME280;71861;52.364;6.580;2023-08-30T03:26:12;100828.19;;;11.89;83.74
82262;BME280;71861;52.364;6.580;2023-08-30T03:28:38;100828.84;;;11.83;84.01
82262;BME280;71861;52.364;6.580;2023-08-30T03:31:17;100823.97;;;11.80;83.94
82262;BME280;71861;52.364;6.580;2023-08-30T03:33:43;100822.53;;;11.77;84.07
82262;BME280;71861;52.364;6.580;2023-08-30T03:36:13;100809.84;;;11.74;84.08
82262;BME280;71861;52.364;6.580;2023-08-30T03:38:39;100812.78;;;11.71;84.10
82262;BME280;71861;52.364;6.580;2023-08-30T03:41:05;100810.19;;;11.71;84.18
82262;BME280;71861;52.364;6.580;2023-08-30T03:43:31;100801.38;;;11.72;84.26
82262;BME280;71861;52.364;6.580;2023-08-30T03:45:58;100804.31;;;11.77;84.58
82262;BME280;71861;52.364;6.580;2023-08-30T03:48:24;100792.56;;;11.82;84.43
82262;BME280;71861;52.364;6.580;2023-08-30T03:50:50;100803.16;;;11.88;84.24
82262;BME280;71861;52.364;6.580;2023-08-30T03:53:15;100791.25;;;11.94;83.97
82262;BME280;71861;52.364;6.580;2023-08-30T03:55:41;100786.34;;;11.99;83.93
82262;BME280;71861;52.364;6.580;2023-08-30T03:58:07;100780.13;;;12.08;84.02
82262;BME280;71861;52.364;6.580;2023-08-30T04:00:32;100785.31;;;12.16;83.83
82262;BME280;71861;52.364;6.580;2023-08-30T04:02:57;100784.63;;;12.22;83.44
82262;BME280;71861;52.364;6.580;2023-08-30T04:05:23;100783.16;;;12.27;83.39
82262;BME280;71861;52.364;6.580;2023-08-30T04:07:48;100781.00;;;12.31;83.09
82262;BME280;71861;52.364;6.580;2023-08-30T04:10:13;100782.13;;;12.36;82.80
82262;BME280;71861;52.364;6.580;2023-08-30T04:12:39;100773.16;;;12.39;82.65
82262;BME280;71861;52.364;6.580;2023-08-30T04:15:04;100773.63;;;12.42;82.54
82262;BME280;71861;52.364;6.580;2023-08-30T04:17:30;100785.31;;;12.46;82.44
82262;BME280;71861;52.364;6.580;2023-08-30T04:19:55;100772.13;;;12.48;82.15
82262;BME280;71861;52.364;6.580;2023-08-30T04:22:20;100767.56;;;12.50;82.27
82262;BME280;71861;52.364;6.580;2023-08-30T04:24:46;100772.78;;;12.50;82.23
82262;BME280;71861;52.364;6.580;2023-08-30T04:27:12;100758.47;;;12.46;82.03
82262;BME280;71861;52.364;6.580;2023-08-30T04:29:37;100760.72;;;12.49;81.94
82262;BME280;71861;52.364;6.580;2023-08-30T04:32:03;100750.66;;;12.46;82.16
82262;BME280;71861;52.364;6.580;2023-08-30T04:34:28;100746.75;;;12.42;82.08
82262;BME280;71861;52.364;6.580;2023-08-30T04:36:55;100746.31;;;12.38;82.11
82262;BME280;71861;52.364;6.580;2023-08-30T04:39:21;100749.41;;;12.34;82.17
82262;BME280;71861;52.364;6.580;2023-08-30T04:41:46;100739.66;;;12.28;82.58
82262;BME280;71861;52.364;6.580;2023-08-30T04:44:11;100739.56;;;12.21;82.69
82262;BME280;71861;52.364;6.580;2023-08-30T04:46:37;100747.56;;;12.12;83.14
82262;BME280;71861;52.364;6.580;2023-08-30T04:49:02;100739.44;;;12.07;82.98
82262;BME280;71861;52.364;6.580;2023-08-30T04:51:27;100744.34;;;12.02;83.51
82262;BME280;71861;52.364;6.580;2023-08-30T04:53:53;100738.19;;;11.95;83.25
82262;BME280;71861;52.364;6.580;2023-08-30T04:56:18;100747.66;;;11.88;83.74
82262;BME280;71861;52.364;6.580;2023-08-30T04:58:43;100740.34;;;11.83;84.21
82262;BME280;71861;52.364;6.580;2023-08-30T05:01:09;100734.69;;;11.80;83.86
82262;BME280;71861;52.364;6.580;2023-08-30T05:03:34;100736.97;;;11.74;83.66
82262;BME280;71861;52.364;6.580;2023-08-30T05:06:00;100729.50;;;11.71;83.57
82262;BME280;71861;52.364;6.580;2023-08-30T05:08:25;100730.78;;;11.67;84.00
82262;BME280;71861;52.364;6.580;2023-08-30T05:10:54;100729.50;;;11.63;83.59
82262;BME280;71861;52.364;6.580;2023-08-30T05:13:19;100732.41;;;11.60;83.37
82262;BME280;71861;52.364;6.580;2023-08-30T05:15:45;100731.75;;;11.58;83.69
82262;BME280;71861;52.364;6.580;2023-08-30T05:18:10;100733.75;;;11.56;84.00
82262;BME280;71861;52.364;6.580;2023-08-30T05:20:35;100730.47;;;11.54;83.86
82262;BME280;71861;52.364;6.580;2023-08-30T05:23:01;100736.69;;;11.53;84.21
82262;BME280;71861;52.364;6.580;2023-08-30T05:25:26;100739.91;;;11.55;84.05
82262;BME280;71861;52.364;6.580;2023-08-30T05:27:52;100741.38;;;11.58;83.99
82262;BME280;71861;52.364;6.580;2023-08-30T05:30:17;100741.53;;;11.64;84.23
82262;BME280;71861;52.364;6.580;2023-08-30T05:32:42;100726.56;;;11.66;84.33
82262;BME280;71861;52.364;6.580;2023-08-30T05:35:08;100727.53;;;11.73;84.21
82262;BME280;71861;52.364;6.580;2023-08-30T05:37:33;100729.94;;;11.83;84.27
82262;BME280;71861;52.364;6.580;2023-08-30T05:39:58;100729.06;;;11.91;84.16
82262;BME280;71861;52.364;6.580;2023-08-30T05:42:24;100727.91;;;12.01;83.80
82262;BME280;71861;52.364;6.580;2023-08-30T05:44:49;100721.34;;;12.13;83.71
82262;BME280;71861;52.364;6.580;2023-08-30T05:47:15;100720.16;;;12.24;83.46
82262;BME280;71861;52.364;6.580;2023-08-30T05:49:41;100715.69;;;12.32;83.08
82262;BME280;71861;52.364;6.580;2023-08-30T05:52:07;100711.91;;;12.43;83.01
82262;BME280;71861;52.364;6.580;2023-08-30T05:54:32;100714.13;;;12.54;82.44
82262;BME280;71861;52.364;6.580;2023-08-30T05:56:59;100709.47;;;12.64;82.34
82262;BME280;71861;52.364;6.580;2023-08-30T05:59:24;100716.06;;;12.74;82.19
82262;BME280;71861;52.364;6.580;2023-08-30T06:01:50;100710.63;;;12.84;81.90
82262;BME280;71861;52.364;6.580;2023-08-30T06:04:15;100716.38;;;12.94;81.43
82262;BME280;71861;52.364;6.580;2023-08-30T06:06:40;100708.53;;;13.02;81.29
82262;BME280;71861;52.364;6.580;2023-08-30T06:09:06;100711.06;;;13.10;80.99
82262;BME280;71861;52.364;6.580;2023-08-30T06:11:32;100702.00;;;13.20;80.49
82262;BME280;71861;52.364;6.580;2023-08-30T06:13:57;100701.13;;;13.28;79.71
82262;BME280;71861;52.364;6.580;2023-08-30T06:16:24;100695.81;;;13.36;80.05
82262;BME280;71861;52.364;6.580;2023-08-30T06:18:50;100693.13;;;13.44;79.50
82262;BME280;71861;52.364;6.580;2023-08-30T06:21:15;100691.41;;;13.51;79.52
82262;BME280;71861;52.364;6.580;2023-08-30T06:23:41;100693.31;;;13.57;79.27
82262;BME280;71861;52.364;6.580;2023-08-30T06:26:06;100687.75;;;13.60;78.60
82262;BME280;71861;52.364;6.580;2023-08-30T06:28:31;100688.34;;;13.62;79.10
82262;BME280;71861;52.364;6.580;2023-08-30T06:30:57;100689.00;;;13.64;78.86
82262;BME280;71861;52.364;6.580;2023-08-30T06:33:22;100682.75;;;13.65;78.46
82262;BME280;71861;52.364;6.580;2023-08-30T06:35:48;100672.59;;;13.70;78.42
82262;BME280;71861;52.364;6.580;2023-08-30T06:38:15;100682.31;;;13.76;78.01
82262;BME280;71861;52.364;6.580;2023-08-30T06:40:44;100678.78;;;13.84;77.49
82262;BME280;71861;52.364;6.580;2023-08-30T06:43:10;100682.53;;;13.96;78.32
82262;BME280;71861;52.364;6.580;2023-08-30T06:45:37;100678.31;;;14.09;77.32
82262;BME280;71861;52.364;6.580;2023-08-30T06:48:03;100678.44;;;14.22;77.31
82262;BME280;71861;52.364;6.580;2023-08-30T06:50:29;100675.63;;;14.38;77.65
82262;BME280;71861;52.364;6.580;2023-08-30T06:52:54;100675.94;;;14.50;76.11
82262;BME280;71861;52.364;6.580;2023-08-30T06:55:19;100663.84;;;14.70;76.52
82262;BME280;71861;52.364;6.580;2023-08-30T06:57:47;100660.81;;;14.94;76.42
82262;BME280;71861;52.364;6.580;2023-08-30T07:00:14;100660.34;;;15.12;74.21
82262;BME280;71861;52.364;6.580;2023-08-30T07:02:40;100663.25;;;15.23;73.99
82262;BME280;71861;52.364;6.580;2023-08-30T07:05:06;100652.91;;;15.43;74.08
82262;BME280;71861;52.364;6.580;2023-08-30T07:07:32;100656.44;;;15.63;73.45
82262;BME280;71861;52.364;6.580;2023-08-30T07:09:57;100642.19;;;15.78;73.60
82262;BME280;71861;52.364;6.580;2023-08-30T07:12:22;100655.94;;;15.93;71.78
82262;BME280;71861;52.364;6.580;2023-08-30T07:14:48;100655.56;;;15.90;72.28
82262;BME280;71861;52.364;6.580;2023-08-30T07:17:13;100650.09;;;15.85;70.89
82262;BME280;71861;52.364;6.580;2023-08-30T07:19:39;100650.03;;;15.72;70.69
82262;BME280;71861;52.364;6.580;2023-08-30T07:22:04;100649.81;;;15.67;72.41
82262;BME280;71861;52.364;6.580;2023-08-30T07:24:30;100648.97;;;15.60;72.22
82262;BME280;71861;52.364;6.580;2023-08-30T07:26:55;100645.72;;;15.58;72.44
82262;BME280;71861;52.364;6.580;2023-08-30T07:29:21;100646.75;;;15.57;72.83
82262;BME280;71861;52.364;6.580;2023-08-30T07:31:46;100646.13;;;15.55;73.21
82262;BME280;71861;52.364;6.580;2023-08-30T07:34:12;100643.69;;;15.53;72.66
82262;BME280;71861;52.364;6.580;2023-08-30T07:36:37;100642.28;;;15.51;72.40
82262;BME280;71861;52.364;6.580;2023-08-30T07:39:03;100641.06;;;15.53;72.85
82262;BME280;71861;52.364;6.580;2023-08-30T07:41:28;100638.84;;;15.50;73.17
82262;BME280;71861;52.364;6.580;2023-08-30T07:43:54;100645.13;;;15.56;73.47
82262;BME280;71861;52.364;6.580;2023-08-30T07:46:19;100651.00;;;15.64;73.53
82262;BME280;71861;52.364;6.580;2023-08-30T07:48:45;100645.81;;;15.71;73.09
82262;BME280;71861;52.364;6.580;2023-08-30T07:51:10;100643.03;;;15.79;72.85
82262;BME280;71861;52.364;6.580;2023-08-30T07:53:35;100637.81;;;15.85;72.65
82262;BME280;71861;52.364;6.580;2023-08-30T07:56:01;100637.81;;;15.92;73.02
82262;BME280;71861;52.364;6.580;2023-08-30T07:58:26;100634.22;;;16.06;72.86
82262;BME280;71861;52.364;6.580;2023-08-30T08:00:54;100624.97;;;16.16;72.63
82262;BME280;71861;52.364;6.580;2023-08-30T08:03:20;100628.22;;;16.25;71.69
82262;BME280;71861;52.364;6.580;2023-08-30T08:05:46;100634.28;;;16.25;71.50
82262;BME280;71861;52.364;6.580;2023-08-30T08:08:11;100641.16;;;16.33;71.65
82262;BME280;71861;52.364;6.580;2023-08-30T08:10:37;100635.09;;;16.32;70.76
82262;BME280;71861;52.364;6.580;2023-08-30T08:13:02;100629.66;;;16.34;71.86
82262;BME280;71861;52.364;6.580;2023-08-30T08:15:31;100626.63;;;16.43;72.08
82262;BME280;71861;52.364;6.580;2023-08-30T08:17:57;100631.09;;;16.49;72.75
82262;BME280;71861;52.364;6.580;2023-08-30T08:20:23;100630.91;;;16.51;72.69
82262;BME280;71861;52.364;6.580;2023-08-30T08:22:48;100624.47;;;16.47;72.30
82262;BME280;71861;52.364;6.580;2023-08-30T08:25:13;100627.81;;;16.41;72.80
82262;BME280;71861;52.364;6.580;2023-08-30T08:27:39;100631.84;;;16.30;72.66
82262;BME280;71861;52.364;6.580;2023-08-30T08:30:05;100624.97;;;16.16;72.34
82262;BME280;71861;52.364;6.580;2023-08-30T08:32:31;100631.38;;;16.01;73.21
82262;BME280;71861;52.364;6.580;2023-08-30T08:34:57;100628.13;;;15.86;73.28
82262;BME280;71861;52.364;6.580;2023-08-30T08:37:22;100636.94;;;15.72;74.00
82262;BME280;71861;52.364;6.580;2023-08-30T08:39:47;100638.50;;;15.60;75.15
82262;BME280;71861;52.364;6.580;2023-08-30T08:42:18;100638.66;;;15.45;75.20
82262;BME280;71861;52.364;6.580;2023-08-30T08:44:46;100637.13;;;15.30;75.96
82262;BME280;71861;52.364;6.580;2023-08-30T08:47:11;100648.91;;;15.19;76.33
82262;BME280;71861;52.364;6.580;2023-08-30T08:49:37;100635.75;;;15.06;77.43
82262;BME280;71861;52.364;6.580;2023-08-30T08:52:03;100632.25;;;14.92;77.73
82262;BME280;71861;52.364;6.580;2023-08-30T08:54:30;100629.75;;;14.84;78.17
82262;BME280;71861;52.364;6.580;2023-08-30T08:56:56;100634.75;;;14.79;78.69
82262;BME280;71861;52.364;6.580;2023-08-30T08:59:23;100635.69;;;14.72;79.36
82262;BME280;71861;52.364;6.580;2023-08-30T09:01:49;100637.47;;;14.65;79.73
82262;BME280;71861;52.364;6.580;2023-08-30T09:04:14;100645.44;;;14.57;79.87
82262;BME280;71861;52.364;6.580;2023-08-30T09:06:40;100640.97;;;14.51;80.44
82262;BME280;71861;52.364;6.580;2023-08-30T09:09:06;100641.72;;;14.45;81.74
82262;BME280;71861;52.364;6.580;2023-08-30T09:11:33;100639.03;;;14.38;81.72
82262;BME280;71861;52.364;6.580;2023-08-30T09:13:59;100636.34;;;14.32;82.12
82262;BME280;71861;52.364;6.580;2023-08-30T09:16:24;100629.06;;;14.27;82.08
82262;BME280;71861;52.364;6.580;2023-08-30T09:19:00;100634.66;;;14.24;82.22
82262;BME280;71861;52.364;6.580;2023-08-30T09:21:25;100638.25;;;14.23;82.18
82262;BME280;71861;52.364;6.580;2023-08-30T09:24:05;100635.00;;;14.21;82.11
82262;BME280;71861;52.364;6.580;2023-08-30T09:26:31;100629.78;;;14.21;82.56
82262;BME280;71861;52.364;6.580;2023-08-30T09:29:03;100624.75;;;14.20;82.26
82262;BME280;71861;52.364;6.580;2023-08-30T09:31:39;100620.16;;;14.22;82.67
82262;BME280;71861;52.364;6.580;2023-08-30T09:34:06;100625.63;;;14.27;82.64
82262;BME280;71861;52.364;6.580;2023-08-30T09:36:41;100614.09;;;14.21;83.03
82262;BME280;71861;52.364;6.580;2023-08-30T09:39:14;100608.53;;;14.24;83.36
82262;BME280;71861;52.364;6.580;2023-08-30T09:41:43;100601.66;;;14.23;82.96
82262;BME280;71861;52.364;6.580;2023-08-30T09:44:13;100598.41;;;14.21;83.27
82262;BME280;71861;52.364;6.580;2023-08-30T09:46:46;100589.56;;;14.22;83.53
82262;BME280;71861;52.364;6.580;2023-08-30T09:49:13;100590.50;;;14.29;83.63
82262;BME280;71861;52.364;6.580;2023-08-30T09:51:39;100578.91;;;14.38;84.35
82262;BME280;71861;52.364;6.580;2023-08-30T09:54:18;100583.38;;;14.44;83.92
82262;BME280;71861;52.364;6.580;2023-08-30T09:56:45;100578.22;;;14.51;83.92
82262;BME280;71861;52.364;6.580;2023-08-30T09:59:12;100570.56;;;14.49;84.01
82262;BME280;71861;52.364;6.580;2023-08-30T10:01:39;100572.78;;;14.52;83.98
82262;BME280;71861;52.364;6.580;2023-08-30T10:04:07;100575.41;;;14.52;83.77
82262;BME280;71861;52.364;6.580;2023-08-30T10:06:33;100568.72;;;14.50;84.02
82262;BME280;71861;52.364;6.580;2023-08-30T10:08:58;100567.13;;;14.49;83.90
82262;BME280;71861;52.364;6.580;2023-08-30T10:11:24;100570.94;;;14.46;84.66
82262;BME280;71861;52.364;6.580;2023-08-30T10:13:51;100561.66;;;14.44;84.27
82262;BME280;71861;52.364;6.580;2023-08-30T10:16:22;100561.66;;;14.44;85.00
82262;BME280;71861;52.364;6.580;2023-08-30T10:18:54;100567.69;;;14.44;84.88
82262;BME280;71861;52.364;6.580;2023-08-30T10:21:24;100552.63;;;14.46;84.56
82262;BME280;71861;52.364;6.580;2023-08-30T10:23:51;100555.66;;;14.50;85.02
82262;BME280;71861;52.364;6.580;2023-08-30T10:26:24;100550.81;;;14.47;85.96
82262;BME280;71861;52.364;6.580;2023-08-30T10:28:53;100543.91;;;14.39;86.33
82262;BME280;71861;52.364;6.580;2023-08-30T10:31:20;100546.72;;;14.38;85.93
82262;BME280;71861;52.364;6.580;2023-08-30T10:33:49;100549.53;;;14.36;86.13
82262;BME280;71861;52.364;6.580;2023-08-30T10:38:54;100549.16;;;14.39;86.83
82262;BME280;71861;52.364;6.580;2023-08-30T10:41:21;100544.53;;;14.41;86.79
82262;BME280;71861;52.364;6.580;2023-08-30T10:43:50;100536.94;;;14.46;86.68
82262;BME280;71861;52.364;6.580;2023-08-30T10:46:17;100540.78;;;14.50;86.73
82262;BME280;71861;52.364;6.580;2023-08-30T10:48:42;100532.31;;;14.48;86.97
82262;BME280;71861;52.364;6.580;2023-08-30T10:51:38;100531.94;;;14.51;87.49
82262;BME280;71861;52.364;6.580;2023-08-30T10:54:11;100533.56;;;14.52;87.41
82262;BME280;71861;52.364;6.580;2023-08-30T10:56:57;100531.34;;;14.56;87.34
82262;BME280;71861;52.364;6.580;2023-08-30T10:59:24;100532.81;;;14.58;86.83
82262;BME280;71861;52.364;6.580;2023-08-30T11:01:51;100538.66;;;14.60;86.63
82262;BME280;71861;52.364;6.580;2023-08-30T11:04:18;100530.00;;;14.60;87.03
82262;BME280;71861;52.364;6.580;2023-08-30T11:06:45;100526.75;;;14.58;86.88
82262;BME280;71861;52.364;6.580;2023-08-30T11:09:17;100531.00;;;14.59;87.42
82262;BME280;71861;52.364;6.580;2023-08-30T11:11:43;100518.72;;;14.59;86.55
82262;BME280;71861;52.364;6.580;2023-08-30T11:14:09;100516.53;;;14.63;86.61
82262;BME280;71861;52.364;6.580;2023-08-30T11:16:35;100522.59;;;14.63;87.10
82262;BME280;71861;52.364;6.580;2023-08-30T11:19:02;100519.59;;;14.66;86.89
82262;BME280;71861;52.364;6.580;2023-08-30T11:21:29;100512.91;;;14.64;87.00
82262;BME280;71861;52.364;6.580;2023-08-30T11:23:55;100507.69;;;14.64;86.91
82262;BME280;71861;52.364;6.580;2023-08-30T11:26:21;100506.13;;;14.69;86.58
82262;BME280;71861;52.364;6.580;2023-08-30T11:28:46;100503.13;;;14.72;87.02
82262;BME280;71861;52.364;6.580;2023-08-30T11:31:24;100501.91;;;14.75;87.12
82262;BME280;71861;52.364;6.580;2023-08-30T11:33:54;100501.78;;;14.83;87.08
82262;BME280;71861;52.364;6.580;2023-08-30T11:36:22;100498.97;;;14.84;87.07
82262;BME280;71861;52.364;6.580;2023-08-30T11:38:55;100500.19;;;14.88;86.82
82262;BME280;71861;52.364;6.580;2023-08-30T11:41:20;100499.00;;;14.91;86.87
82262;BME280;71861;52.364;6.580;2023-08-30T11:43:50;100496.00;;;14.94;86.58
82262;BME280;71861;52.364;6.580;2023-08-30T11:46:20;100488.94;;;14.94;87.08
82262;BME280;71861;52.364;6.580;2023-08-30T11:48:47;100494.59;;;14.98;86.67
82262;BME280;71861;52.364;6.580;2023-08-30T11:51:13;100487.97;;;14.95;86.78
82262;BME280;71861;52.364;6.580;2023-08-30T11:53:39;100486.31;;;14.94;86.53
82262;BME280;71861;52.364;6.580;2023-08-30T11:56:07;100493.59;;;14.99;86.84
82262;BME280;71861;52.364;6.580;2023-08-30T11:58:34;100489.78;;;15.01;86.89
82262;BME280;71861;52.364;6.580;2023-08-30T12:00:59;100484.38;;;15.03;86.43
82262;BME280;71861;52.364;6.580;2023-08-30T12:03:29;100485.38;;;15.02;86.56
82262;BME280;71861;52.364;6.580;2023-08-30T12:05:54;100482.56;;;15.03;86.73
82262;BME280;71861;52.364;6.580;2023-08-30T12:08:24;100492.84;;;15.12;86.60
82262;BME280;71861;52.364;6.580;2023-08-30T12:10:50;100484.03;;;15.26;86.85
82262;BME280;71861;52.364;6.580;2023-08-30T12:13:30;100488.41;;;15.53;86.77
82262;BME280;71861;52.364;6.580;2023-08-30T12:15:58;100486.25;;;15.82;86.70
82262;BME280;71861;52.364;6.580;2023-08-30T12:18:25;100477.38;;;16.16;86.43
82262;BME280;71861;52.364;6.580;2023-08-30T12:20:54;100482.22;;;16.45;84.35
82262;BME280;71861;52.364;6.580;2023-08-30T12:23:23;100477.13;;;16.63;84.92
82262;BME280;71861;52.364;6.580;2023-08-30T12:26:06;100479.91;;;16.81;84.60
82262;BME280;71861;52.364;6.580;2023-08-30T12:28:34;100474.72;;;17.19;83.61
82262;BME280;71861;52.364;6.580;2023-08-30T12:31:00;100470.38;;;17.50;83.63
82262;BME280;71861;52.364;6.580;2023-08-30T12:33:26;100463.09;;;17.77;82.28
82262;BME280;71861;52.364;6.580;2023-08-30T12:35:53;100468.22;;;17.96;81.61
82262;BME280;71861;52.364;6.580;2023-08-30T12:38:18;100460.00;;;18.11;78.96
82262;BME280;71861;52.364;6.580;2023-08-30T12:40:47;100469.66;;;18.17;79.52
82262;BME280;71861;52.364;6.580;2023-08-30T12:43:15;100463.38;;;18.18;78.49
82262;BME280;71861;52.364;6.580;2023-08-30T12:45:41;100466.38;;;18.21;79.04
82262;BME280;71861;52.364;6.580;2023-08-30T12:48:08;100474.16;;;18.35;79.22
82262;BME280;71861;52.364;6.580;2023-08-30T12:50:35;100469.50;;;18.37;78.18
82262;BME280;71861;52.364;6.580;2023-08-30T12:53:02;100464.13;;;18.50;77.87
82262;BME280;71861;52.364;6.580;2023-08-30T12:55:27;100460.75;;;18.79;76.31
82262;BME280;71861;52.364;6.580;2023-08-30T12:57:52;100470.56;;;18.90;74.22
82262;BME280;71861;52.364;6.580;2023-08-30T13:00:18;100473.72;;;18.98;75.08
82262;BME280;71861;52.364;6.580;2023-08-30T13:02:44;100469.44;;;19.15;74.05
82262;BME280;71861;52.364;6.580;2023-08-30T13:05:10;100468.84;;;19.13;72.13
82262;BME280;71861;52.364;6.580;2023-08-30T13:07:36;100469.53;;;19.09;71.46
82262;BME280;71861;52.364;6.580;2023-08-30T13:10:01;100476.84;;;19.07;71.99
82262;BME280;71861;52.364;6.580;2023-08-30T13:12:27;100470.81;;;19.36;72.95
82262;BME280;71861;52.364;6.580;2023-08-30T13:14:52;100469.09;;;19.71;71.58
82262;BME280;71861;52.364;6.580;2023-08-30T13:17:17;100467.78;;;20.03;69.44
82262;BME280;71861;52.364;6.580;2023-08-30T13:19:43;100472.19;;;20.32;68.63
82262;BME280;71861;52.364;6.580;2023-08-30T13:22:09;100461.03;;;20.65;65.88
82262;BME280;71861;52.364;6.580;2023-08-30T13:24:35;100463.94;;;20.91;65.70
82262;BME280;71861;52.364;6.580;2023-08-30T13:27:00;100463.91;;;21.14;62.81
82262;BME280;71861;52.364;6.580;2023-08-30T13:29:26;100463.97;;;21.59;65.59
82262;BME280;71861;52.364;6.580;2023-08-30T13:31:51;100460.47;;;22.03;64.76
82262;BME280;71861;52.364;6.580;2023-08-30T13:34:16;100463.25;;;22.13;55.94
82262;BME280;71861;52.364;6.580;2023-08-30T13:36:42;100459.44;;;22.04;58.24
82262;BME280;71861;52.364;6.580;2023-08-30T13:39:07;100472.81;;;22.14;58.46
82262;BME280;71861;52.364;6.580;2023-08-30T13:41:33;100463.84;;;22.15;56.36
82262;BME280;71861;52.364;6.580;2023-08-30T13:43:59;100472.00;;;22.30;59.35
82262;BME280;71861;52.364;6.580;2023-08-30T13:46:24;100469.25;;;22.42;57.04
82262;BME280;71861;52.364;6.580;2023-08-30T13:48:50;100473.81;;;22.46;56.04
82262;BME280;71861;52.364;6.580;2023-08-30T13:51:21;100477.34;;;22.52;55.66
82262;BME280;71861;52.364;6.580;2023-08-30T13:53:46;100472.00;;;22.47;55.14
82262;BME280;71861;52.364;6.580;2023-08-30T13:56:12;100474.72;;;22.35;54.70
82262;BME280;71861;52.364;6.580;2023-08-30T13:58:38;100472.66;;;22.21;54.21
82262;BME280;71861;52.364;6.580;2023-08-30T14:01:03;100474.34;;;22.10;56.05
82262;BME280;71861;52.364;6.580;2023-08-30T14:03:30;100475.06;;;22.06;55.20
82262;BME280;71861;52.364;6.580;2023-08-30T14:05:55;100480.69;;;21.93;54.29
82262;BME280;71861;52.364;6.580;2023-08-30T14:08:20;100480.44;;;21.78;55.77
82262;BME280;71861;52.364;6.580;2023-08-30T14:10:45;100478.91;;;21.82;56.22
82262;BME280;71861;52.364;6.580;2023-08-30T14:13:11;100479.06;;;21.92;57.16
82262;BME280;71861;52.364;6.580;2023-08-30T14:15:36;100473.00;;;21.91;56.34
82262;BME280;71861;52.364;6.580;2023-08-30T14:18:02;100465.47;;;21.72;53.86
82262;BME280;71861;52.364;6.580;2023-08-30T14:20:27;100482.50;;;21.48;55.08
82262;BME280;71861;52.364;6.580;2023-08-30T14:22:53;100490.81;;;21.39;55.55
82262;BME280;71861;52.364;6.580;2023-08-30T14:25:18;100488.59;;;21.20;54.92
82262;BME280;71861;52.364;6.580;2023-08-30T14:27:43;100488.78;;;21.02;54.61
82262;BME280;71861;52.364;6.580;2023-08-30T14:30:09;100488.56;;;20.69;55.73
82262;BME280;71861;52.364;6.580;2023-08-30T14:32:34;100493.66;;;20.59;55.41
82262;BME280;71861;52.364;6.580;2023-08-30T14:35:00;100495.47;;;20.35;55.60
82262;BME280;71861;52.364;6.580;2023-08-30T14:37:25;100496.28;;;20.24;56.01
82262;BME280;71861;52.364;6.580;2023-08-30T14:39:53;100500.50;;;20.14;55.67
82262;BME280;71861;52.364;6.580;2023-08-30T14:42:19;100507.22;;;19.98;56.19
82262;BME280;71861;52.364;6.580;2023-08-30T14:44:48;100506.88;;;19.95;57.30
82262;BME280;71861;52.364;6.580;2023-08-30T14:47:14;100516.25;;;19.91;57.96
82262;BME280;71861;52.364;6.580;2023-08-30T14:49:39;100519.22;;;19.82;58.21
82262;BME280;71861;52.364;6.580;2023-08-30T14:52:05;100516.13;;;19.74;57.18
82262;BME280;71861;52.364;6.580;2023-08-30T14:54:30;100516.28;;;19.61;58.24
82262;BME280;71861;52.364;6.580;2023-08-30T14:56:55;100515.69;;;19.59;58.05
82262;BME280;71861;52.364;6.580;2023-08-30T14:59:21;100508.81;;;19.58;59.34
82262;BME280;71861;52.364;6.580;2023-08-30T15:01:46;100517.56;;;19.58;59.34
82262;BME280;71861;52.364;6.580;2023-08-30T15:04:11;100521.88;;;19.53;58.23
82262;BME280;71861;52.364;6.580;2023-08-30T15:06:37;100521.16;;;19.46;58.69
82262;BME280;71861;52.364;6.580;2023-08-30T15:09:05;100518.22;;;19.36;58.26
82262;BME280;71861;52.364;6.580;2023-08-30T15:11:30;100521.75;;;19.30;59.45
82262;BME280;71861;52.364;6.580;2023-08-30T15:13:55;100527.75;;;19.19;59.50
82262;BME280;71861;52.364;6.580;2023-08-30T15:16:21;100528.34;;;19.03;59.47
82262;BME280;71861;52.364;6.580;2023-08-30T15:18:47;100533.81;;;18.83;59.64
82262;BME280;71861;52.364;6.580;2023-08-30T15:21:13;100525.47;;;18.68;60.17
82262;BME280;71861;52.364;6.580;2023-08-30T15:23:38;100527.38;;;18.61;62.03
82262;BME280;71861;52.364;6.580;2023-08-30T15:26:04;100525.59;;;18.55;62.59
82262;BME280;71861;52.364;6.580;2023-08-30T15:28:30;100527.69;;;18.47;63.59
82262;BME280;71861;52.364;6.580;2023-08-30T15:30:56;100527.53;;;18.42;63.36
82262;BME280;71861;52.364;6.580;2023-08-30T15:33:22;100533.00;;;18.40;64.20
82262;BME280;71861;52.364;6.580;2023-08-30T15:35:49;100532.34;;;18.45;64.77
82262;BME280;71861;52.364;6.580;2023-08-30T15:38:15;100536.19;;;18.49;64.95
82262;BME280;71861;52.364;6.580;2023-08-30T15:40:41;100533.28;;;18.57;63.97
82262;BME280;71861;52.364;6.580;2023-08-30T15:43:06;100538.75;;;18.55;64.03
82262;BME280;71861;52.364;6.580;2023-08-30T15:45:32;100543.88;;;18.50;63.65
82262;BME280;71861;52.364;6.580;2023-08-30T15:47:57;100551.97;;;18.49;63.50
82262;BME280;71861;52.364;6.580;2023-08-30T15:50:22;100557.38;;;18.29;61.67